Time;durP1;ratioP1;P1;durP2;ratioP2;P2;SDS_P1;SDS_P2;PMS_P1;PMS_P2;Temp;Humidity;BMP_temperature;BMP_pressure;BME280_temperature;BME280_humidity;BME280_pressure;Samples;Min_cycle;Max_cycle;Signal;HPM_P1;HPM_P2
2023/12/05 00:00:26;;;;;;;7.43;6.43;;;;;;;;;;5021933;28;20229;-91
2023/12/05 00:02:53;;;;;;;7.13;5.30;;;;;;;;;;5047182;28;20680;-91
2023/12/05 00:05:20;;;;;;;6.57;5.43;;;;;;;;;;5029282;28;20637;-90
2023/12/05 00:07:47;;;;;;;11.93;8.73;;;;;;;;;;5032485;28;20223;-91
2023/12/05 00:10:15;;;;;;;11.93;9.57;;;;;;;;;;5039973;28;20206;-90
2023/12/05 00:12:42;;;;;;;12.23;8.90;;;;;;;;;;5045516;28;20747;-90
2023/12/05 00:15:09;;;;;;;9.77;7.00;;;;;;;;;;5048487;28;20234;-91
2023/12/05 00:17:38;;;;;;;7.73;6.90;;;;;;;;;;5033064;28;20614;-90
2023/12/05 00:20:07;;;;;;;9.90;8.90;;;;;;;;;;5029780;28;20214;-90
2023/12/05 00:22:34;;;;;;;7.97;7.13;;;;;;;;;;5028483;28;20221;-90
2023/12/05 00:25:02;;;;;;;9.40;7.57;;;;;;;;;;5040942;28;20213;-90
2023/12/05 00:27:29;;;;;;;10.00;7.33;;;;;;;;;;5048263;28;20202;-90
2023/12/05 00:29:56;;;;;;;9.23;7.63;;;;;;;;;;5038048;28;20214;-91
2023/12/05 00:32:23;;;;;;;8.47;6.93;;;;;;;;;;5046559;28;20206;-90
2023/12/05 00:34:52;;;;;;;11.00;8.60;;;;;;;;;;5035607;28;20226;-90
2023/12/05 00:37:19;;;;;;;11.57;9.23;;;;;;;;;;5042892;28;20230;-90
2023/12/05 00:39:46;;;;;;;11.90;8.57;;;;;;;;;;5016762;28;20216;-90
2023/12/05 00:42:13;;;;;;;11.63;8.73;;;;;;;;;;5032925;28;20643;-90
2023/12/05 00:44:40;;;;;;;8.30;7.20;;;;;;;;;;5048312;27;20201;-89
2023/12/05 00:47:07;;;;;;;8.27;7.37;;;;;;;;;;5048081;28;20210;-90
2023/12/05 00:49:34;;;;;;;10.03;6.60;;;;;;;;;;5048237;28;20672;-90
2023/12/05 00:52:03;;;;;;;10.90;7.20;;;;;;;;;;5029581;28;20259;-90
2023/12/05 00:54:31;;;;;;;10.67;8.40;;;;;;;;;;5041309;28;20596;-90
2023/12/05 00:56:58;;;;;;;9.13;8.07;;;;;;;;;;5034798;28;20241;-89
2023/12/05 00:59:25;;;;;;;9.33;7.37;;;;;;;;;;5049143;27;20615;-89
2023/12/05 01:01:53;;;;;;;8.63;7.00;;;;;;;;;;5035465;28;20262;-90
2023/12/05 01:04:20;;;;;;;11.60;6.17;;;;;;;;;;5033791;28;20203;-90
2023/12/05 01:06:47;;;;;;;12.43;7.43;;;;;;;;;;5035656;28;20210;-90
2023/12/05 01:09:16;;;;;;;12.93;8.17;;;;;;;;;;5014440;28;20260;-91
2023/12/05 01:11:43;;;;;;;9.00;7.30;;;;;;;;;;5018015;28;20234;-90
2023/12/05 01:14:10;;;;;;;10.53;6.47;;;;;;;;;;5027699;28;20252;-90
2023/12/05 01:16:42;;;;;;;7.70;6.60;;;;;;;;;;5028895;28;20231;-90
2023/12/05 01:19:10;;;;;;;7.77;6.60;;;;;;;;;;5041251;28;20576;-90
2023/12/05 01:21:37;;;;;;;10.33;7.17;;;;;;;;;;5021580;28;20682;-91
2023/12/05 01:24:04;;;;;;;9.30;7.77;;;;;;;;;;5034177;28;20255;-90
2023/12/05 01:26:32;;;;;;;9.10;7.57;;;;;;;;;;5048600;27;20205;-91
2023/12/05 01:29:04;;;;;;;8.73;6.77;;;;;;;;;;5040415;28;20204;-91
2023/12/05 01:31:32;;;;;;;9.10;6.93;;;;;;;;;;5001415;28;20203;-90
2023/12/05 01:33:59;;;;;;;8.53;7.10;;;;;;;;;;5039499;28;20214;-90
2023/12/05 01:36:27;;;;;;;11.70;9.27;;;;;;;;;;5006425;28;20254;-90
2023/12/05 01:38:55;;;;;;;12.43;9.90;;;;;;;;;;5031513;28;20262;-91
2023/12/05 01:41:21;;;;;;;11.83;9.33;;;;;;;;;;5035233;27;20230;-91
2023/12/05 01:43:50;;;;;;;17.43;11.17;;;;;;;;;;5042128;28;20215;-90
2023/12/05 01:46:17;;;;;;;11.40;7.87;;;;;;;;;;5028987;28;20602;-90
2023/12/05 01:48:45;;;;;;;14.90;11.13;;;;;;;;;;5025608;28;20259;-90
2023/12/05 01:51:12;;;;;;;14.50;9.10;;;;;;;;;;5051796;28;20214;-90
2023/12/05 01:53:40;;;;;;;13.60;9.13;;;;;;;;;;5021494;28;20198;-90
2023/12/05 01:56:11;;;;;;;11.23;8.90;;;;;;;;;;5050786;28;20237;-89
2023/12/05 01:58:38;;;;;;;16.17;9.20;;;;;;;;;;5039163;28;20300;-89
2023/12/05 02:01:08;;;;;;;11.07;8.10;;;;;;;;;;5048943;28;20209;-89
2023/12/05 02:03:36;;;;;;;10.87;8.37;;;;;;;;;;5031095;28;20210;-89
2023/12/05 02:06:03;;;;;;;12.97;8.90;;;;;;;;;;5044331;28;20218;-90
2023/12/05 02:08:31;;;;;;;14.37;7.93;;;;;;;;;;5041516;28;20210;-89
2023/12/05 02:10:58;;;;;;;11.03;8.47;;;;;;;;;;5047048;28;20234;-89
2023/12/05 02:13:26;;;;;;;11.83;8.37;;;;;;;;;;5032035;28;20214;-89
2023/12/05 02:15:57;;;;;;;15.20;9.60;;;;;;;;;;5014277;28;20245;-90
2023/12/05 02:18:29;;;;;;;11.40;9.10;;;;;;;;;;5042224;28;20206;-89
2023/12/05 02:21:06;;;;;;;11.57;8.60;;;;;;;;;;5045193;27;20225;-89
2023/12/05 02:24:03;;;;;;;12.47;8.13;;;;;;;;;;5043514;28;20209;-89
2023/12/05 02:26:36;;;;;;;12.60;8.33;;;;;;;;;;5051377;28;20706;-89
2023/12/05 02:29:05;;;;;;;12.93;8.70;;;;;;;;;;5050533;27;20259;-89
2023/12/05 02:31:32;;;;;;;10.93;8.37;;;;;;;;;;5039453;28;20210;-90
2023/12/05 02:34:00;;;;;;;10.77;8.37;;;;;;;;;;5050053;28;20205;-89
2023/12/05 02:36:36;;;;;;;12.10;8.20;;;;;;;;;;5050204;28;20273;-89
2023/12/05 02:39:18;;;;;;;14.83;9.33;;;;;;;;;;5018284;28;20251;-90
2023/12/05 02:41:46;;;;;;;11.80;8.60;;;;;;;;;;5033225;28;20221;-91
2023/12/05 02:44:16;;;;;;;14.37;9.50;;;;;;;;;;5041175;28;20210;-90
2023/12/05 02:46:44;;;;;;;11.83;8.57;;;;;;;;;;5034685;28;20213;-89
2023/12/05 02:49:12;;;;;;;14.70;9.80;;;;;;;;;;5050958;28;20217;-90
2023/12/05 02:51:39;;;;;;;16.40;12.63;;;;;;;;;;5046623;28;20218;-88
2023/12/05 02:54:07;;;;;;;17.40;9.73;;;;;;;;;;5041358;28;20217;-89
2023/12/05 02:56:35;;;;;;;15.80;10.03;;;;;;;;;;5022900;28;20243;-89
2023/12/05 02:59:02;;;;;;;13.10;10.17;;;;;;;;;;5038698;28;20206;-90
2023/12/05 03:01:30;;;;;;;15.37;10.43;;;;;;;;;;5033356;28;20214;-89
2023/12/05 03:03:57;;;;;;;14.37;10.80;;;;;;;;;;5034280;28;20211;-90
2023/12/05 03:06:27;;;;;;;16.73;10.27;;;;;;;;;;5029600;28;20203;-88
2023/12/05 03:08:54;;;;;;;13.47;10.17;;;;;;;;;;5033993;28;20272;-90
2023/12/05 03:11:20;;;;;;;14.67;10.97;;;;;;;;;;5036125;28;20233;-88
2023/12/05 03:13:48;;;;;;;14.80;10.23;;;;;;;;;;5049225;27;20202;-89
2023/12/05 03:16:15;;;;;;;14.03;9.47;;;;;;;;;;5035745;28;20255;-89
2023/12/05 03:18:43;;;;;;;15.37;11.10;;;;;;;;;;5049526;28;20209;-89
2023/12/05 03:21:10;;;;;;;18.17;10.70;;;;;;;;;;5049366;28;20214;-89
2023/12/05 03:23:37;;;;;;;13.67;10.93;;;;;;;;;;5033182;28;20209;-89
2023/12/05 03:26:05;;;;;;;16.63;11.37;;;;;;;;;;5022371;28;20216;-88
2023/12/05 03:28:32;;;;;;;14.23;10.00;;;;;;;;;;5045921;27;20212;-89
2023/12/05 03:31:01;;;;;;;12.43;8.63;;;;;;;;;;5034584;28;20213;-88
2023/12/05 03:33:27;;;;;;;13.67;8.30;;;;;;;;;;5032739;28;20686;-89
2023/12/05 03:35:56;;;;;;;11.63;9.17;;;;;;;;;;5010601;28;20295;-88
2023/12/05 03:38:23;;;;;;;11.33;8.87;;;;;;;;;;5044236;28;20210;-89
2023/12/05 03:40:50;;;;;;;11.73;8.27;;;;;;;;;;5050289;28;20213;-89
2023/12/05 03:43:18;;;;;;;12.33;8.63;;;;;;;;;;5019637;28;20210;-89
2023/12/05 03:45:45;;;;;;;15.87;8.93;;;;;;;;;;5050161;28;20243;-89
2023/12/05 03:48:13;;;;;;;12.03;8.83;;;;;;;;;;5043780;28;20215;-89
2023/12/05 03:50:39;;;;;;;9.43;8.13;;;;;;;;;;5042437;28;20225;-88
2023/12/05 03:53:08;;;;;;;10.67;9.00;;;;;;;;;;5036822;27;20205;-89
2023/12/05 03:55:35;;;;;;;9.77;8.00;;;;;;;;;;5048749;27;20691;-89
2023/12/05 03:58:03;;;;;;;11.70;8.70;;;;;;;;;;5036600;28;20214;-88
2023/12/05 04:00:30;;;;;;;13.40;8.57;;;;;;;;;;5049806;28;20233;-88
2023/12/05 04:02:57;;;;;;;11.37;7.97;;;;;;;;;;5023413;28;20210;-89
2023/12/05 04:05:24;;;;;;;20.53;14.23;;;;;;;;;;5034743;28;20218;-89
2023/12/05 04:07:51;;;;;;;19.23;13.93;;;;;;;;;;4999949;28;20213;-87
2023/12/05 04:10:20;;;;;;;18.50;14.10;;;;;;;;;;5032250;28;20209;-88
2023/12/05 04:12:47;;;;;;;13.20;9.73;;;;;;;;;;5046884;28;20209;-88
2023/12/05 04:15:16;;;;;;;10.60;8.73;;;;;;;;;;5032018;28;20713;-88
2023/12/05 04:17:43;;;;;;;11.47;8.00;;;;;;;;;;5031387;28;20210;-90
2023/12/05 04:20:12;;;;;;;9.97;7.97;;;;;;;;;;5040858;28;20273;-89
2023/12/05 04:22:40;;;;;;;10.77;7.77;;;;;;;;;;5036006;28;20221;-88
2023/12/05 04:25:08;;;;;;;11.60;8.07;;;;;;;;;;5033829;28;20207;-88
2023/12/05 04:27:43;;;;;;;10.50;8.17;;;;;;;;;;5046083;28;20210;-86
2023/12/05 04:30:10;;;;;;;10.93;7.73;;;;;;;;;;5048648;27;20695;-89
2023/12/05 04:32:38;;;;;;;12.50;8.93;;;;;;;;;;5048912;28;20229;-89
2023/12/05 04:35:05;;;;;;;11.03;7.87;;;;;;;;;;5048276;28;20232;-89
2023/12/05 04:37:34;;;;;;;8.50;7.40;;;;;;;;;;5048955;27;20202;-89
2023/12/05 04:40:06;;;;;;;10.83;7.20;;;;;;;;;;5026613;28;20215;-88
2023/12/05 04:42:33;;;;;;;9.30;6.90;;;;;;;;;;5000464;28;20239;-89
2023/12/05 04:45:02;;;;;;;9.03;7.03;;;;;;;;;;5040600;28;20210;-88
2023/12/05 04:47:29;;;;;;;10.90;7.60;;;;;;;;;;5028434;28;20723;-88
2023/12/05 04:49:56;;;;;;;10.17;7.33;;;;;;;;;;5047397;28;20206;-88
2023/12/05 04:52:24;;;;;;;11.67;8.07;;;;;;;;;;5023020;28;20290;-90
2023/12/05 04:54:51;;;;;;;13.37;8.90;;;;;;;;;;5028119;28;20275;-89
2023/12/05 04:57:18;;;;;;;12.30;8.20;;;;;;;;;;5037391;28;20617;-89
2023/12/05 04:59:45;;;;;;;12.47;8.07;;;;;;;;;;5036448;28;20240;-89
2023/12/05 05:02:15;;;;;;;11.37;8.73;;;;;;;;;;5048334;28;20209;-89
2023/12/05 05:04:43;;;;;;;12.97;8.27;;;;;;;;;;5049234;27;20206;-88
2023/12/05 05:07:11;;;;;;;10.13;7.67;;;;;;;;;;5094950;28;20211;-87
2023/12/05 05:09:40;;;;;;;12.87;9.80;;;;;;;;;;5043865;27;20306;-87
2023/12/05 05:12:08;;;;;;;9.60;8.67;;;;;;;;;;5038793;28;20234;-87
2023/12/05 05:14:36;;;;;;;12.03;8.00;;;;;;;;;;5047102;28;20296;-88
2023/12/05 05:17:03;;;;;;;12.43;8.07;;;;;;;;;;5040405;28;20317;-86
2023/12/05 05:19:32;;;;;;;11.30;8.17;;;;;;;;;;5025775;28;20214;-88
2023/12/05 05:22:00;;;;;;;11.73;8.50;;;;;;;;;;5050886;28;20214;-88
2023/12/05 05:24:27;;;;;;;12.00;9.37;;;;;;;;;;5050262;28;20205;-88
2023/12/05 05:26:54;;;;;;;11.80;8.60;;;;;;;;;;5040950;28;20213;-89
2023/12/05 05:29:21;;;;;;;11.97;8.07;;;;;;;;;;5037621;27;20241;-85
2023/12/05 05:31:48;;;;;;;9.40;7.47;;;;;;;;;;5051488;28;20202;-87
2023/12/05 05:34:14;;;;;;;10.90;7.97;;;;;;;;;;5033910;28;20268;-86
2023/12/05 05:36:43;;;;;;;10.50;8.07;;;;;;;;;;5035546;28;20222;-87
2023/12/05 05:39:10;;;;;;;11.33;8.90;;;;;;;;;;5037778;28;20221;-87
2023/12/05 05:41:37;;;;;;;11.40;8.27;;;;;;;;;;5037358;28;20263;-86
2023/12/05 05:44:04;;;;;;;15.17;11.30;;;;;;;;;;5040896;28;20211;-86
2023/12/05 05:46:31;;;;;;;20.73;13.80;;;;;;;;;;5051075;28;20198;-86
2023/12/05 05:48:58;;;;;;;20.87;13.73;;;;;;;;;;5038054;28;20214;-86
2023/12/05 05:51:25;;;;;;;19.27;12.00;;;;;;;;;;5037106;28;20209;-86
2023/12/05 05:53:55;;;;;;;16.07;12.00;;;;;;;;;;5050682;27;20695;-86
2023/12/05 05:56:22;;;;;;;10.07;8.30;;;;;;;;;;5043631;28;20287;-86
2023/12/05 05:58:49;;;;;;;12.63;9.13;;;;;;;;;;5044580;28;20213;-86
2023/12/05 06:01:16;;;;;;;9.37;8.23;;;;;;;;;;5031189;28;20217;-86
2023/12/05 06:03:43;;;;;;;9.07;7.37;;;;;;;;;;5045932;28;20635;-86
2023/12/05 06:06:11;;;;;;;13.53;7.63;;;;;;;;;;5043262;28;20215;-86
2023/12/05 06:08:37;;;;;;;8.27;6.70;;;;;;;;;;5030956;28;20207;-85
2023/12/05 06:11:06;;;;;;;9.43;7.33;;;;;;;;;;5047701;28;20230;-86
2023/12/05 06:13:33;;;;;;;9.60;6.57;;;;;;;;;;5051516;28;20589;-86
2023/12/05 06:16:03;;;;;;;7.43;6.63;;;;;;;;;;5037383;28;20233;-86
2023/12/05 06:18:30;;;;;;;6.77;6.07;;;;;;;;;;5051111;28;20202;-86
2023/12/05 06:20:57;;;;;;;6.83;5.43;;;;;;;;;;5050436;28;20206;-86
2023/12/05 06:23:24;;;;;;;8.20;6.90;;;;;;;;;;5050812;28;20202;-86
2023/12/05 06:25:51;;;;;;;10.63;9.53;;;;;;;;;;5037098;28;20202;-86
2023/12/05 06:28:19;;;;;;;7.90;7.10;;;;;;;;;;5039024;28;20214;-86
2023/12/05 06:30:46;;;;;;;8.03;7.33;;;;;;;;;;5049222;28;20202;-86
2023/12/05 06:33:13;;;;;;;8.77;6.80;;;;;;;;;;5038224;28;20633;-86
2023/12/05 06:35:40;;;;;;;6.90;6.07;;;;;;;;;;5049800;28;20230;-84
2023/12/05 06:38:07;;;;;;;8.57;6.60;;;;;;;;;;5050889;28;20206;-86
2023/12/05 06:40:34;;;;;;;7.53;6.03;;;;;;;;;;5031025;28;20259;-87
2023/12/05 06:43:03;;;;;;;6.47;5.80;;;;;;;;;;5030573;28;20207;-87
2023/12/05 06:45:34;;;;;;;7.80;5.77;;;;;;;;;;5017856;28;20203;-87
2023/12/05 06:48:01;;;;;;;6.30;5.37;;;;;;;;;;5044066;28;20205;-87
2023/12/05 06:50:28;;;;;;;8.07;5.77;;;;;;;;;;5050128;28;20668;-86
2023/12/05 06:52:57;;;;;;;7.47;6.77;;;;;;;;;;5037221;27;20214;-87
2023/12/05 06:55:24;;;;;;;6.27;5.60;;;;;;;;;;5042311;28;20199;-86
2023/12/05 06:57:51;;;;;;;5.10;4.53;;;;;;;;;;5031450;28;20210;-86
2023/12/05 07:00:18;;;;;;;6.10;5.20;;;;;;;;;;5050473;28;20210;-85
2023/12/05 07:02:47;;;;;;;6.73;5.37;;;;;;;;;;5048781;28;20653;-86
2023/12/05 07:05:14;;;;;;;6.03;5.53;;;;;;;;;;5039021;28;20741;-86
2023/12/05 07:07:41;;;;;;;5.67;5.07;;;;;;;;;;5036904;28;20207;-87
2023/12/05 07:10:08;;;;;;;4.93;4.10;;;;;;;;;;5050014;28;20233;-86
2023/12/05 07:12:35;;;;;;;6.30;5.43;;;;;;;;;;5050233;28;20687;-86
2023/12/05 07:15:02;;;;;;;7.57;5.77;;;;;;;;;;5050045;28;20210;-87
2023/12/05 07:17:29;;;;;;;6.40;5.50;;;;;;;;;;5033522;28;20234;-86
2023/12/05 07:20:05;;;;;;;6.90;6.07;;;;;;;;;;5039626;28;20202;-87
2023/12/05 07:22:32;;;;;;;6.63;5.60;;;;;;;;;;5049922;28;20225;-85
2023/12/05 07:24:59;;;;;;;6.60;5.67;;;;;;;;;;5049660;28;20207;-87
2023/12/05 07:27:25;;;;;;;6.87;5.87;;;;;;;;;;5023267;28;20554;-86
2023/12/05 07:29:53;;;;;;;6.63;5.30;;;;;;;;;;5039345;28;20217;-86
2023/12/05 07:32:19;;;;;;;6.23;4.87;;;;;;;;;;5047631;28;20267;-86
2023/12/05 07:34:49;;;;;;;5.57;5.07;;;;;;;;;;5038173;28;20696;-86
2023/12/05 07:37:17;;;;;;;6.50;5.57;;;;;;;;;;5029700;28;20264;-86
2023/12/05 07:39:44;;;;;;;7.83;6.70;;;;;;;;;;5041829;28;20202;-87
2023/12/05 07:42:11;;;;;;;6.63;5.67;;;;;;;;;;5049203;28;20197;-87
2023/12/05 07:44:38;;;;;;;5.33;4.83;;;;;;;;;;5049488;28;20213;-87
2023/12/05 07:47:07;;;;;;;6.33;5.50;;;;;;;;;;5043567;27;20289;-87
2023/12/05 07:49:34;;;;;;;5.77;4.70;;;;;;;;;;5030083;28;20718;-87
2023/12/05 07:52:05;;;;;;;4.97;4.30;;;;;;;;;;5036206;28;20205;-87
2023/12/05 07:54:33;;;;;;;4.97;4.47;;;;;;;;;;5049763;28;20206;-87
2023/12/05 07:57:03;;;;;;;4.57;4.17;;;;;;;;;;5048753;28;20714;-86
2023/12/05 07:59:30;;;;;;;4.80;4.30;;;;;;;;;;5047684;28;20235;-87
2023/12/05 08:01:57;;;;;;;5.23;4.20;;;;;;;;;;5029649;28;20390;-87
2023/12/05 08:04:23;;;;;;;4.80;4.27;;;;;;;;;;5027977;28;20209;-86
2023/12/05 08:06:50;;;;;;;5.50;4.67;;;;;;;;;;5010059;28;20208;-86
2023/12/05 08:09:17;;;;;;;6.30;4.73;;;;;;;;;;5011445;28;20211;-85
2023/12/05 08:11:45;;;;;;;5.40;4.50;;;;;;;;;;5038063;28;20320;-84
2023/12/05 08:14:13;;;;;;;6.27;5.03;;;;;;;;;;5035493;28;20221;-84
2023/12/05 08:16:42;;;;;;;5.10;4.60;;;;;;;;;;5038511;28;20222;-85
2023/12/05 08:19:09;;;;;;;5.07;4.57;;;;;;;;;;5045920;28;20209;-85
2023/12/05 08:21:36;;;;;;;4.13;3.47;;;;;;;;;;5038505;28;20207;-85
2023/12/05 08:24:03;;;;;;;4.33;3.50;;;;;;;;;;5046187;28;20210;-85
2023/12/05 08:26:29;;;;;;;4.47;3.97;;;;;;;;;;5037726;28;20203;-85
2023/12/05 08:28:58;;;;;;;7.83;6.73;;;;;;;;;;5032984;28;20194;-85
2023/12/05 08:31:25;;;;;;;4.57;4.17;;;;;;;;;;5048510;28;20668;-85
2023/12/05 08:33:51;;;;;;;5.47;4.37;;;;;;;;;;5048303;28;20198;-85
2023/12/05 08:36:18;;;;;;;5.30;4.80;;;;;;;;;;5048452;28;20222;-85
2023/12/05 08:38:45;;;;;;;4.33;3.90;;;;;;;;;;5034286;28;20205;-85
2023/12/05 08:41:18;;;;;;;3.63;3.23;;;;;;;;;;5048516;28;20213;-85
2023/12/05 08:43:44;;;;;;;5.00;4.50;;;;;;;;;;5048355;28;20686;-85
2023/12/05 08:46:13;;;;;;;3.10;2.80;;;;;;;;;;5048539;28;20206;-85
2023/12/05 08:48:40;;;;;;;3.77;3.30;;;;;;;;;;5042321;28;20211;-85
2023/12/05 08:51:06;;;;;;;2.73;2.53;;;;;;;;;;5041688;28;20206;-86
2023/12/05 08:53:32;;;;;;;3.27;2.97;;;;;;;;;;5028554;28;20242;-85
2023/12/05 08:56:04;;;;;;;3.03;2.67;;;;;;;;;;5029809;28;20202;-86
2023/12/05 08:58:30;;;;;;;3.00;2.73;;;;;;;;;;5051748;28;20197;-85
2023/12/05 09:01:05;;;;;;;3.10;2.90;;;;;;;;;;5051363;28;20202;-85
2023/12/05 09:03:33;;;;;;;3.07;2.70;;;;;;;;;;5051957;28;20192;-85
2023/12/05 09:06:02;;;;;;;3.00;2.80;;;;;;;;;;5049255;28;20202;-85
2023/12/05 09:08:29;;;;;;;3.97;3.67;;;;;;;;;;5042071;28;20297;-85
2023/12/05 09:10:57;;;;;;;4.97;2.83;;;;;;;;;;5050084;28;20307;-85
2023/12/05 09:13:24;;;;;;;3.97;3.67;;;;;;;;;;5051233;28;20680;-84
2023/12/05 09:15:50;;;;;;;4.07;2.90;;;;;;;;;;5051151;28;20672;-86
2023/12/05 09:18:17;;;;;;;2.47;2.27;;;;;;;;;;5051595;28;20616;-85
2023/12/05 09:20:45;;;;;;;2.77;2.23;;;;;;;;;;5050942;28;20230;-86
2023/12/05 09:23:13;;;;;;;3.53;3.23;;;;;;;;;;5041649;28;20211;-86
2023/12/05 09:25:39;;;;;;;4.90;4.10;;;;;;;;;;5045600;28;20213;-86
2023/12/05 09:28:06;;;;;;;6.47;5.87;;;;;;;;;;5031732;28;20211;-86
2023/12/05 09:30:33;;;;;;;6.70;5.40;;;;;;;;;;5048339;28;20764;-86
2023/12/05 09:33:02;;;;;;;5.43;4.83;;;;;;;;;;5051784;28;20203;-86
2023/12/05 09:35:29;;;;;;;3.40;3.10;;;;;;;;;;5047142;28;20650;-86
2023/12/05 09:37:57;;;;;;;3.47;2.67;;;;;;;;;;5042129;28;20592;-86
2023/12/05 09:40:24;;;;;;;2.77;2.57;;;;;;;;;;5033873;28;20665;-87
2023/12/05 09:42:53;;;;;;;2.90;2.70;;;;;;;;;;5043096;28;20202;-86
2023/12/05 09:45:20;;;;;;;2.80;2.60;;;;;;;;;;5037617;28;20217;-86
2023/12/05 09:47:47;;;;;;;3.30;3.00;;;;;;;;;;5051756;28;20233;-86
2023/12/05 09:50:14;;;;;;;3.40;3.20;;;;;;;;;;5051180;28;20202;-87
2023/12/05 09:52:43;;;;;;;2.77;2.57;;;;;;;;;;5051342;28;20210;-87
2023/12/05 09:55:11;;;;;;;2.90;2.70;;;;;;;;;;5045283;28;20207;-87
2023/12/05 09:57:39;;;;;;;2.53;2.33;;;;;;;;;;5044358;28;20233;-87
2023/12/05 10:00:09;;;;;;;3.00;2.80;;;;;;;;;;5038010;28;20220;-87
2023/12/05 10:02:37;;;;;;;4.20;2.70;;;;;;;;;;5051371;28;20676;-87
2023/12/05 10:05:05;;;;;;;2.50;2.30;;;;;;;;;;5025820;28;20205;-88
2023/12/05 10:07:32;;;;;;;2.97;2.77;;;;;;;;;;5037437;28;20215;-87
2023/12/05 10:10:00;;;;;;;2.20;1.97;;;;;;;;;;5051633;28;20614;-88
2023/12/05 10:12:28;;;;;;;2.77;2.57;;;;;;;;;;5051245;28;20213;-88
2023/12/05 10:14:55;;;;;;;2.80;2.57;;;;;;;;;;5051327;28;20632;-88
2023/12/05 10:17:22;;;;;;;2.93;2.70;;;;;;;;;;5051196;27;20233;-88
2023/12/05 10:19:49;;;;;;;2.80;2.60;;;;;;;;;;5042733;28;20210;-88
2023/12/05 10:22:16;;;;;;;2.77;2.57;;;;;;;;;;5044617;28;20629;-87
2023/12/05 10:24:43;;;;;;;3.17;2.87;;;;;;;;;;5039752;28;20225;-87
2023/12/05 10:27:11;;;;;;;3.40;3.10;;;;;;;;;;5037773;28;20221;-88
2023/12/05 10:29:40;;;;;;;2.70;2.50;;;;;;;;;;5051370;28;20209;-87
2023/12/05 10:32:08;;;;;;;2.93;2.73;;;;;;;;;;5021464;28;20218;-88
2023/12/05 10:34:46;;;;;;;2.57;2.37;;;;;;;;;;5041388;28;20261;-88
2023/12/05 10:37:14;;;;;;;2.87;2.67;;;;;;;;;;5045934;28;20712;-87
2023/12/05 10:39:41;;;;;;;3.43;3.13;;;;;;;;;;5042644;28;20213;-88
2023/12/05 10:42:08;;;;;;;3.63;3.33;;;;;;;;;;5046024;27;20230;-88
2023/12/05 10:44:39;;;;;;;3.50;3.17;;;;;;;;;;5031155;28;20234;-88
2023/12/05 10:47:07;;;;;;;5.03;3.73;;;;;;;;;;5036557;28;20206;-88
2023/12/05 10:49:34;;;;;;;7.13;5.60;;;;;;;;;;5038240;28;20222;-87
2023/12/05 10:52:03;;;;;;;5.83;5.20;;;;;;;;;;5050119;28;20698;-87
2023/12/05 10:54:30;;;;;;;6.30;4.87;;;;;;;;;;5037786;27;20211;-87
2023/12/05 10:56:58;;;;;;;11.33;9.23;;;;;;;;;;5043670;28;20203;-87
2023/12/05 10:59:26;;;;;;;11.43;10.30;;;;;;;;;;5044144;28;20651;-87
2023/12/05 11:01:56;;;;;;;6.10;5.60;;;;;;;;;;5038758;28;20238;-87
2023/12/05 11:04:25;;;;;;;6.53;5.87;;;;;;;;;;5037222;28;20211;-88
2023/12/05 11:06:52;;;;;;;5.40;5.00;;;;;;;;;;5042218;28;20215;-87
2023/12/05 11:09:19;;;;;;;5.23;4.73;;;;;;;;;;5045891;28;20206;-87
2023/12/05 11:11:47;;;;;;;5.30;4.90;;;;;;;;;;5050392;28;20234;-88
2023/12/05 11:14:17;;;;;;;5.30;4.80;;;;;;;;;;5036866;28;20228;-88
2023/12/05 11:16:48;;;;;;;6.27;5.77;;;;;;;;;;5050432;28;20213;-88
2023/12/05 11:19:22;;;;;;;9.40;7.97;;;;;;;;;;5036287;28;20202;-88
2023/12/05 11:22:07;;;;;;;9.90;8.50;;;;;;;;;;5039105;28;20688;-87
2023/12/05 11:25:11;;;;;;;7.40;6.70;;;;;;;;;;5038357;28;20218;-88
2023/12/05 11:27:48;;;;;;;6.73;6.13;;;;;;;;;;5050034;28;20216;-88
2023/12/05 11:30:44;;;;;;;7.57;6.87;;;;;;;;;;5050231;28;20209;-88
2023/12/05 11:33:18;;;;;;;6.60;6.00;;;;;;;;;;5038425;28;20209;-88
2023/12/05 11:35:54;;;;;;;5.97;5.47;;;;;;;;;;5043667;28;20206;-89
2023/12/05 11:38:22;;;;;;;5.70;5.20;;;;;;;;;;5017103;28;20656;-88
2023/12/05 11:41:14;;;;;;;6.73;4.90;;;;;;;;;;5038356;28;20230;-88
2023/12/05 11:43:42;;;;;;;5.60;5.00;;;;;;;;;;5032051;28;20293;-88
2023/12/05 11:46:28;;;;;;;5.17;4.70;;;;;;;;;;5042305;28;20216;-88
2023/12/05 11:48:55;;;;;;;5.47;4.60;;;;;;;;;;5027112;28;20209;-87
2023/12/05 11:51:24;;;;;;;5.93;5.33;;;;;;;;;;5049739;28;20209;-87
2023/12/05 11:53:51;;;;;;;5.93;5.43;;;;;;;;;;5050118;28;20695;-88
2023/12/05 11:56:20;;;;;;;10.80;8.63;;;;;;;;;;5047657;28;20615;-88
2023/12/05 11:58:47;;;;;;;15.50;13.87;;;;;;;;;;5039111;28;20225;-88
2023/12/05 12:01:18;;;;;;;13.50;11.60;;;;;;;;;;5036868;28;20217;-88
2023/12/05 12:03:48;;;;;;;10.90;9.60;;;;;;;;;;5039539;28;20218;-88
2023/12/05 12:06:16;;;;;;;16.30;14.03;;;;;;;;;;5046769;28;20210;-88
2023/12/05 12:08:45;;;;;;;122.80;57.77;;;;;;;;;;5049890;28;20201;-88
2023/12/05 12:11:13;;;;;;;20.63;16.20;;;;;;;;;;5049174;28;20273;-88
2023/12/05 12:13:40;;;;;;;10.90;9.80;;;;;;;;;;5049359;28;20726;-88
2023/12/05 12:16:07;;;;;;;8.90;8.00;;;;;;;;;;5035971;28;20275;-88
2023/12/05 12:18:34;;;;;;;8.33;7.47;;;;;;;;;;5049333;28;20236;-88
2023/12/05 12:21:02;;;;;;;8.77;7.97;;;;;;;;;;5030918;28;20202;-88
2023/12/05 12:23:29;;;;;;;8.30;7.50;;;;;;;;;;5029941;28;20206;-88
2023/12/05 12:26:00;;;;;;;7.77;7.00;;;;;;;;;;5042895;28;20222;-88
2023/12/05 12:28:28;;;;;;;7.97;7.03;;;;;;;;;;5029592;28;20217;-88
2023/12/05 12:30:56;;;;;;;6.97;5.93;;;;;;;;;;5048634;28;20209;-88
2023/12/05 12:33:28;;;;;;;7.43;6.43;;;;;;;;;;5049516;28;20214;-89
2023/12/05 12:35:55;;;;;;;10.03;8.60;;;;;;;;;;5016636;28;20240;-88
2023/12/05 12:38:22;;;;;;;11.67;9.53;;;;;;;;;;5043133;28;20289;-88
2023/12/05 12:40:50;;;;;;;9.10;8.10;;;;;;;;;;5042631;28;20297;-88
2023/12/05 12:43:18;;;;;;;9.07;7.53;;;;;;;;;;5042506;28;20274;-88
2023/12/05 12:45:45;;;;;;;13.93;10.27;;;;;;;;;;5036804;28;20221;-88
2023/12/05 12:48:12;;;;;;;32.43;20.20;;;;;;;;;;5049033;28;20209;-88
2023/12/05 12:50:39;;;;;;;15.90;13.07;;;;;;;;;;5040605;28;20215;-87
2023/12/05 12:53:06;;;;;;;13.93;11.37;;;;;;;;;;5044072;28;20647;-88
2023/12/05 12:55:33;;;;;;;13.20;10.93;;;;;;;;;;5049202;28;20198;-88
2023/12/05 12:58:00;;;;;;;10.10;8.97;;;;;;;;;;5035961;28;20227;-88
2023/12/05 13:00:29;;;;;;;11.17;9.60;;;;;;;;;;5040049;28;20213;-89
2023/12/05 13:02:58;;;;;;;10.97;8.90;;;;;;;;;;5042419;28;20210;-89
2023/12/05 13:05:32;;;;;;;9.57;8.00;;;;;;;;;;5039432;28;20214;-87
2023/12/05 13:07:59;;;;;;;18.00;15.07;;;;;;;;;;5048748;28;20682;-88
2023/12/05 13:10:26;;;;;;;16.97;15.20;;;;;;;;;;5049085;28;20325;-88
2023/12/05 13:12:53;;;;;;;15.10;13.60;;;;;;;;;;5043458;28;20686;-88
2023/12/05 13:15:22;;;;;;;11.67;10.27;;;;;;;;;;5040909;28;20207;-88
2023/12/05 13:18:02;;;;;;;11.33;8.07;;;;;;;;;;5035456;27;20221;-88
2023/12/05 13:20:29;;;;;;;7.83;5.93;;;;;;;;;;5047321;28;20201;-88
2023/12/05 13:22:56;;;;;;;9.17;5.43;;;;;;;;;;5036443;28;20217;-87
2023/12/05 13:25:23;;;;;;;33.17;8.37;;;;;;;;;;5035501;28;20696;-88
2023/12/05 13:27:51;;;;;;;12.70;9.97;;;;;;;;;;5032915;28;20219;-88
2023/12/05 13:30:19;;;;;;;9.93;7.33;;;;;;;;;;5037140;28;20202;-88
2023/12/05 13:32:46;;;;;;;11.53;6.20;;;;;;;;;;5037413;28;20210;-88
2023/12/05 13:35:14;;;;;;;9.50;5.60;;;;;;;;;;5045706;28;20225;-88
2023/12/05 13:37:42;;;;;;;8.47;6.17;;;;;;;;;;5028890;28;20270;-88
2023/12/05 13:40:10;;;;;;;8.97;7.40;;;;;;;;;;5028496;28;20210;-88
2023/12/05 13:42:37;;;;;;;12.60;7.57;;;;;;;;;;5039579;28;20244;-88
2023/12/05 13:45:05;;;;;;;19.17;9.83;;;;;;;;;;5048977;28;20283;-87
2023/12/05 13:47:32;;;;;;;46.67;14.13;;;;;;;;;;5042152;28;20244;-88
2023/12/05 13:49:59;;;;;;;11.20;6.43;;;;;;;;;;5038180;28;20221;-87
2023/12/05 13:52:27;;;;;;;21.73;6.70;;;;;;;;;;5051758;28;20202;-88
2023/12/05 13:54:54;;;;;;;27.93;9.63;;;;;;;;;;5052368;28;20204;-88
2023/12/05 13:57:21;;;;;;;36.93;7.93;;;;;;;;;;5040798;28;20214;-87
2023/12/05 13:59:48;;;;;;;6.33;5.73;;;;;;;;;;5044957;28;20238;-87
2023/12/05 14:02:15;;;;;;;9.17;5.93;;;;;;;;;;5042158;28;20206;-87
2023/12/05 14:04:41;;;;;;;7.77;6.00;;;;;;;;;;5033615;28;20214;-87
2023/12/05 14:07:10;;;;;;;26.50;12.10;;;;;;;;;;5031342;28;20214;-87
2023/12/05 14:09:38;;;;;;;32.20;14.67;;;;;;;;;;5044844;28;20228;-87
2023/12/05 14:12:11;;;;;;;21.03;13.53;;;;;;;;;;5043097;28;20242;-87
2023/12/05 14:14:38;;;;;;;23.53;15.73;;;;;;;;;;5050921;28;20202;-87
2023/12/05 14:17:05;;;;;;;21.83;18.90;;;;;;;;;;5038181;28;20222;-87
2023/12/05 14:19:32;;;;;;;59.70;44.33;;;;;;;;;;5044546;28;20218;-88
2023/12/05 14:21:59;;;;;;;54.07;39.67;;;;;;;;;;5031412;28;20749;-87
2023/12/05 14:24:26;;;;;;;25.43;17.53;;;;;;;;;;5044243;28;20210;-87
2023/12/05 14:26:54;;;;;;;18.63;12.50;;;;;;;;;;5044557;28;20205;-87
2023/12/05 14:29:21;;;;;;;21.73;16.53;;;;;;;;;;5050950;28;20214;-87
2023/12/05 14:31:47;;;;;;;16.53;13.07;;;;;;;;;;5049719;28;20202;-87
2023/12/05 14:34:14;;;;;;;15.03;11.57;;;;;;;;;;5039153;27;20210;-87
2023/12/05 14:36:41;;;;;;;16.10;12.23;;;;;;;;;;5037479;28;20210;-87
2023/12/05 14:39:08;;;;;;;21.90;14.00;;;;;;;;;;5043061;28;20226;-87
2023/12/05 14:41:35;;;;;;;60.37;14.83;;;;;;;;;;5030989;28;20271;-86